sensor_id;sensor_type;location;lat;lon;timestamp;pressure;altitude;pressure_sealevel;temperature;humidity
65557;BME280;52200;53.490;14.376;2023-04-02T00:07:41;101257.63;;;2.73;77.87
65557;BME280;52200;53.490;14.376;2023-04-02T00:10:30;101263.72;;;2.90;78.52
65557;BME280;52200;53.490;14.376;2023-04-02T00:15:35;101267.06;;;2.89;77.84
65557;BME280;52200;53.490;14.376;2023-04-02T00:18:01;101269.53;;;2.86;77.94
65557;BME280;52200;53.490;14.376;2023-04-02T00:20:29;101278.69;;;2.84;78.27
65557;BME280;52200;53.490;14.376;2023-04-02T00:22:56;101274.41;;;2.77;78.14
65557;BME280;52200;53.490;14.376;2023-04-02T00:25:25;101272.84;;;2.84;78.57
65557;BME280;52200;53.490;14.376;2023-04-02T00:27:52;101275.38;;;2.85;78.41
65557;BME280;52200;53.490;14.376;2023-04-02T00:30:17;101277.78;;;2.78;78.18
65557;BME280;52200;53.490;14.376;2023-04-02T00:32:42;101284.34;;;2.71;78.02
65557;BME280;52200;53.490;14.376;2023-04-02T00:35:18;101289.41;;;2.72;78.38
65557;BME280;52200;53.490;14.376;2023-04-02T00:37:45;101286.75;;;2.63;78.62
65557;BME280;52200;53.490;14.376;2023-04-02T00:40:23;101290.25;;;2.74;78.90
65557;BME280;52200;53.490;14.376;2023-04-02T00:42:51;101291.88;;;2.71;78.10
65557;BME280;52200;53.490;14.376;2023-04-02T00:45:26;101298.47;;;2.63;78.92
65557;BME280;52200;53.490;14.376;2023-04-02T00:47:56;101299.56;;;2.82;78.38
65557;BME280;52200;53.490;14.376;2023-04-02T00:50:34;101305.44;;;2.82;78.30
65557;BME280;52200;53.490;14.376;2023-04-02T00:53:14;101294.72;;;2.94;78.47
65557;BME280;52200;53.490;14.376;2023-04-02T00:55:41;101298.91;;;2.92;78.47
65557;BME280;52200;53.490;14.376;2023-04-02T00:58:26;101312.41;;;3.02;77.60
65557;BME280;52200;53.490;14.376;2023-04-02T01:00:53;101312.53;;;3.11;78.06
65557;BME280;52200;53.490;14.376;2023-04-02T01:05:49;101325.53;;;2.82;78.67
65557;BME280;52200;53.490;14.376;2023-04-02T01:13:55;101324.34;;;2.62;77.63
65557;BME280;52200;53.490;14.376;2023-04-02T01:19:27;101332.69;;;2.59;78.32
65557;BME280;52200;53.490;14.376;2023-04-02T01:22:08;101336.91;;;2.62;77.91
65557;BME280;52200;53.490;14.376;2023-04-02T01:24:39;101338.50;;;2.56;77.82
65557;BME280;52200;53.490;14.376;2023-04-02T01:27:16;101342.91;;;2.71;77.34
65557;BME280;52200;53.490;14.376;2023-04-02T01:29:52;101342.25;;;2.83;78.14
65557;BME280;52200;53.490;14.376;2023-04-02T01:32:21;101347.13;;;2.74;77.63
65557;BME280;52200;53.490;14.376;2023-04-02T01:34:48;101352.09;;;2.71;77.58
65557;BME280;52200;53.490;14.376;2023-04-02T01:45:31;101353.66;;;2.63;77.37
65557;BME280;52200;53.490;14.376;2023-04-02T01:48:00;101357.88;;;2.65;77.24
65557;BME280;52200;53.490;14.376;2023-04-02T01:50:29;101369.81;;;2.80;77.67
65557;BME280;52200;53.490;14.376;2023-04-02T01:52:59;101368.91;;;2.77;77.18
65557;BME280;52200;53.490;14.376;2023-04-02T01:57:57;101383.19;;;2.81;77.62
65557;BME280;52200;53.490;14.376;2023-04-02T02:00:25;101386.38;;;2.72;77.29
65557;BME280;52200;53.490;14.376;2023-04-02T02:02:52;101383.09;;;2.74;77.01
65557;BME280;52200;53.490;14.376;2023-04-02T02:05:20;101393.19;;;2.78;76.51
65557;BME280;52200;53.490;14.376;2023-04-02T02:07:47;101395.59;;;2.71;76.09
65557;BME280;52200;53.490;14.376;2023-04-02T02:10:17;101398.72;;;2.60;76.07
65557;BME280;52200;53.490;14.376;2023-04-02T02:12:43;101388.78;;;2.66;75.99
65557;BME280;52200;53.490;14.376;2023-04-02T02:15:15;101400.41;;;2.61;76.63
65557;BME280;52200;53.490;14.376;2023-04-02T02:17:41;101405.66;;;2.73;76.72
65557;BME280;52200;53.490;14.376;2023-04-02T02:20:08;101402.41;;;2.80;76.34
65557;BME280;52200;53.490;14.376;2023-04-02T02:22:37;101407.63;;;2.91;76.36
65557;BME280;52200;53.490;14.376;2023-04-02T02:25:15;101409.53;;;3.06;76.58
65557;BME280;52200;53.490;14.376;2023-04-02T02:30:29;101423.69;;;3.02;76.28
65557;BME280;52200;53.490;14.376;2023-04-02T02:32:59;101424.50;;;3.00;75.71
65557;BME280;52200;53.490;14.376;2023-04-02T02:35:42;101429.53;;;3.03;75.93
65557;BME280;52200;53.490;14.376;2023-04-02T02:40:55;101431.59;;;3.26;75.09
65557;BME280;52200;53.490;14.376;2023-04-02T02:43:23;101439.78;;;3.15;75.83
65557;BME280;52200;53.490;14.376;2023-04-02T02:45:50;101439.38;;;2.90;75.49
65557;BME280;52200;53.490;14.376;2023-04-02T02:48:20;101441.56;;;2.72;75.72
65557;BME280;52200;53.490;14.376;2023-04-02T02:50:48;101446.78;;;2.81;76.45
65557;BME280;52200;53.490;14.376;2023-04-02T02:53:21;101460.16;;;2.83;75.58
65557;BME280;52200;53.490;14.376;2023-04-02T02:55:51;101453.41;;;2.78;75.80
65557;BME280;52200;53.490;14.376;2023-04-02T02:58:22;101456.03;;;2.85;75.96
65557;BME280;52200;53.490;14.376;2023-04-02T03:00:50;101456.13;;;2.90;75.58
65557;BME280;52200;53.490;14.376;2023-04-02T03:03:22;101460.34;;;2.93;76.65
65557;BME280;52200;53.490;14.376;2023-04-02T03:05:58;101461.91;;;2.86;75.95
65557;BME280;52200;53.490;14.376;2023-04-02T03:08:34;101471.97;;;2.89;76.89
65557;BME280;52200;53.490;14.376;2023-04-02T03:11:09;101470.97;;;2.79;76.42
65557;BME280;52200;53.490;14.376;2023-04-02T03:13:38;101482.94;;;2.93;76.25
65557;BME280;52200;53.490;14.376;2023-04-02T03:16:11;101479.38;;;2.81;76.61
65557;BME280;52200;53.490;14.376;2023-04-02T03:23:53;101501.63;;;3.10;76.25
65557;BME280;52200;53.490;14.376;2023-04-02T03:26:33;101511.53;;;3.01;76.25
65557;BME280;52200;53.490;14.376;2023-04-02T03:32:20;101523.22;;;3.02;76.65
65557;BME280;52200;53.490;14.376;2023-04-02T03:38:06;101527.44;;;3.03;76.92
65557;BME280;52200;53.490;14.376;2023-04-02T03:40:53;101536.63;;;3.01;76.29
65557;BME280;52200;53.490;14.376;2023-04-02T03:43:25;101532.44;;;3.01;76.71
65557;BME280;52200;53.490;14.376;2023-04-02T03:45:56;101536.66;;;3.04;75.92
65557;BME280;52200;53.490;14.376;2023-04-02T03:48:36;101543.72;;;3.25;76.36
65557;BME280;52200;53.490;14.376;2023-04-02T03:51:18;101550.25;;;3.15;75.96
65557;BME280;52200;53.490;14.376;2023-04-02T03:53:45;101558.69;;;3.20;75.54
65557;BME280;52200;53.490;14.376;2023-04-02T03:56:30;101559.25;;;3.04;75.70
65557;BME280;52200;53.490;14.376;2023-04-02T03:59:14;101567.31;;;2.87;75.90
65557;BME280;52200;53.490;14.376;2023-04-02T04:01:48;101575.53;;;2.79;75.21
65557;BME280;52200;53.490;14.376;2023-04-02T04:04:18;101571.41;;;2.82;74.99
65557;BME280;52200;53.490;14.376;2023-04-02T04:06:45;101575.78;;;2.93;74.70
65557;BME280;52200;53.490;14.376;2023-04-02T04:09:22;101577.34;;;2.87;75.58
65557;BME280;52200;53.490;14.376;2023-04-02T04:11:53;101576.16;;;3.14;74.40
65557;BME280;52200;53.490;14.376;2023-04-02T04:14:31;101580.72;;;2.89;75.24
65557;BME280;52200;53.490;14.376;2023-04-02T04:17:19;101595.09;;;2.97;75.40
65557;BME280;52200;53.490;14.376;2023-04-02T04:20:00;101588.47;;;3.02;75.43
65557;BME280;52200;53.490;14.376;2023-04-02T04:22:33;101600.22;;;3.03;75.50
65557;BME280;52200;53.490;14.376;2023-04-02T04:25:02;101609.00;;;3.27;74.92
65557;BME280;52200;53.490;14.376;2023-04-02T04:27:52;101619.50;;;3.05;74.80
65557;BME280;52200;53.490;14.376;2023-04-02T04:30:29;101620.84;;;2.86;75.42
65557;BME280;52200;53.490;14.376;2023-04-02T04:33:04;101621.84;;;2.95;75.15
65557;BME280;52200;53.490;14.376;2023-04-02T04:35:43;101625.28;;;3.00;74.95
65557;BME280;52200;53.490;14.376;2023-04-02T04:38:37;101638.38;;;2.85;74.73
65557;BME280;52200;53.490;14.376;2023-04-02T04:44:00;101635.06;;;2.87;73.84
65557;BME280;52200;53.490;14.376;2023-04-02T04:46:36;101653.69;;;2.99;73.98
65557;BME280;52200;53.490;14.376;2023-04-02T04:49:19;101654.72;;;3.07;74.20
65557;BME280;52200;53.490;14.376;2023-04-02T04:51:53;101648.66;;;2.97;73.35
65557;BME280;52200;53.490;14.376;2023-04-02T04:54:24;101658.75;;;3.02;72.78
65557;BME280;52200;53.490;14.376;2023-04-02T04:56:54;101660.53;;;3.06;72.69
65557;BME280;52200;53.490;14.376;2023-04-02T04:59:31;101670.31;;;2.92;72.67
65557;BME280;52200;53.490;14.376;2023-04-02T05:04:36;101676.97;;;2.92;72.76
65557;BME280;52200;53.490;14.376;2023-04-02T05:07:20;101675.16;;;2.84;72.52
65557;BME280;52200;53.490;14.376;2023-04-02T05:10:06;101682.00;;;2.92;73.41
65557;BME280;52200;53.490;14.376;2023-04-02T05:12:36;101684.75;;;3.04;73.50
65557;BME280;52200;53.490;14.376;2023-04-02T05:17:54;101685.28;;;2.87;72.94
65557;BME280;52200;53.490;14.376;2023-04-02T05:20:31;101688.59;;;2.86;72.50
65557;BME280;52200;53.490;14.376;2023-04-02T05:26:03;101693.75;;;2.94;71.40
65557;BME280;52200;53.490;14.376;2023-04-02T05:28:32;101702.97;;;2.94;70.51
65557;BME280;52200;53.490;14.376;2023-04-02T05:31:04;101704.28;;;2.76;69.99
65557;BME280;52200;53.490;14.376;2023-04-02T05:33:33;101706.97;;;2.85;71.25
65557;BME280;52200;53.490;14.376;2023-04-02T05:36:22;101714.81;;;3.01;71.52
65557;BME280;52200;53.490;14.376;2023-04-02T05:38:50;101718.88;;;2.96;70.46
65557;BME280;52200;53.490;14.376;2023-04-02T05:41:26;101715.53;;;2.95;70.81
65557;BME280;52200;53.490;14.376;2023-04-02T05:44:05;101716.91;;;2.81;69.93
65557;BME280;52200;53.490;14.376;2023-04-02T05:46:56;101729.25;;;2.71;70.49
65557;BME280;52200;53.490;14.376;2023-04-02T05:51:59;101726.63;;;2.67;70.95
65557;BME280;52200;53.490;14.376;2023-04-02T05:54:54;101731.09;;;2.79;70.37
65557;BME280;52200;53.490;14.376;2023-04-02T05:57:22;101734.53;;;2.84;70.12
65557;BME280;52200;53.490;14.376;2023-04-02T05:59:55;101740.47;;;2.87;69.93
65557;BME280;52200;53.490;14.376;2023-04-02T06:02:35;101750.47;;;3.26;69.54
65557;BME280;52200;53.490;14.376;2023-04-02T06:05:11;101753.00;;;3.26;69.60
65557;BME280;52200;53.490;14.376;2023-04-02T06:07:40;101759.19;;;3.43;68.72
65557;BME280;52200;53.490;14.376;2023-04-02T06:10:15;101767.09;;;3.62;68.88
65557;BME280;52200;53.490;14.376;2023-04-02T06:12:52;101772.88;;;4.05;68.48
65557;BME280;52200;53.490;14.376;2023-04-02T06:15:21;101776.09;;;3.98;66.56
65557;BME280;52200;53.490;14.376;2023-04-02T06:18:21;101785.53;;;4.10;66.83
65557;BME280;52200;53.490;14.376;2023-04-02T06:20:47;101784.88;;;4.22;66.47
65557;BME280;52200;53.490;14.376;2023-04-02T06:23:21;101784.88;;;4.22;67.49
65557;BME280;52200;53.490;14.376;2023-04-02T06:26:04;101791.94;;;4.43;66.51
65557;BME280;52200;53.490;14.376;2023-04-02T06:28:45;101798.03;;;4.56;66.12
65557;BME280;52200;53.490;14.376;2023-04-02T06:31:22;101803.47;;;4.30;66.36
65557;BME280;52200;53.490;14.376;2023-04-02T06:33:50;101800.19;;;4.34;66.66
65557;BME280;52200;53.490;14.376;2023-04-02T06:36:19;101806.72;;;4.23;67.46
65557;BME280;52200;53.490;14.376;2023-04-02T06:38:46;101808.75;;;4.45;67.23
65557;BME280;52200;53.490;14.376;2023-04-02T06:41:21;101804.97;;;4.18;66.68
65557;BME280;52200;53.490;14.376;2023-04-02T06:44:01;101813.25;;;4.13;67.64
65557;BME280;52200;53.490;14.376;2023-04-02T06:46:34;101818.56;;;4.30;67.39
65557;BME280;52200;53.490;14.376;2023-04-02T06:49:16;101825.50;;;4.43;66.96
65557;BME280;52200;53.490;14.376;2023-04-02T06:51:46;101832.13;;;4.38;67.76
65557;BME280;52200;53.490;14.376;2023-04-02T06:54:15;101830.34;;;4.31;66.40
65557;BME280;52200;53.490;14.376;2023-04-02T06:56:45;101837.63;;;4.17;66.85
65557;BME280;52200;53.490;14.376;2023-04-02T06:59:12;101841.81;;;4.16;67.16
65557;BME280;52200;53.490;14.376;2023-04-02T07:01:44;101856.13;;;4.20;66.44
65557;BME280;52200;53.490;14.376;2023-04-02T07:04:11;101857.38;;;3.97;65.54
65557;BME280;52200;53.490;14.376;2023-04-02T07:06:37;101858.25;;;3.97;66.62
65557;BME280;52200;53.490;14.376;2023-04-02T07:09:02;101864.09;;;4.45;65.84
65557;BME280;52200;53.490;14.376;2023-04-02T07:11:28;101866.47;;;4.36;65.43
65557;BME280;52200;53.490;14.376;2023-04-02T07:13:53;101865.56;;;4.31;64.65
65557;BME280;52200;53.490;14.376;2023-04-02T07:16:22;101860.78;;;4.46;65.16
65557;BME280;52200;53.490;14.376;2023-04-02T07:18:49;101857.03;;;5.33;64.76
65557;BME280;52200;53.490;14.376;2023-04-02T07:21:14;101864.03;;;5.53;65.37
65557;BME280;52200;53.490;14.376;2023-04-02T07:23:40;101873.19;;;5.46;64.57
65557;BME280;52200;53.490;14.376;2023-04-02T07:26:07;101872.22;;;5.36;63.64
65557;BME280;52200;53.490;14.376;2023-04-02T07:28:33;101882.25;;;5.33;64.03
65557;BME280;52200;53.490;14.376;2023-04-02T07:30:58;101878.22;;;5.46;64.00
65557;BME280;52200;53.490;14.376;2023-04-02T07:33:27;101887.34;;;5.36;63.54
65557;BME280;52200;53.490;14.376;2023-04-02T07:35:54;101889.47;;;5.10;63.27
65557;BME280;52200;53.490;14.376;2023-04-02T07:38:20;101892.06;;;5.14;63.15
65557;BME280;52200;53.490;14.376;2023-04-02T07:40:45;101899.34;;;4.97;63.55
65557;BME280;52200;53.490;14.376;2023-04-02T07:43:11;101906.44;;;5.23;63.64
65557;BME280;52200;53.490;14.376;2023-04-02T07:45:36;101903.03;;;5.20;63.33
65557;BME280;52200;53.490;14.376;2023-04-02T07:48:06;101904.91;;;5.31;63.39
65557;BME280;52200;53.490;14.376;2023-04-02T07:50:32;101912.19;;;5.11;62.90
65557;BME280;52200;53.490;14.376;2023-04-02T07:52:58;101919.63;;;5.05;62.42
65557;BME280;52200;53.490;14.376;2023-04-02T07:55:23;101919.78;;;5.16;62.93
65557;BME280;52200;53.490;14.376;2023-04-02T07:57:51;101918.16;;;5.20;62.88
65557;BME280;52200;53.490;14.376;2023-04-02T08:00:18;101927.22;;;5.08;63.19
65557;BME280;52200;53.490;14.376;2023-04-02T08:02:43;101925.22;;;4.89;62.40
65557;BME280;52200;53.490;14.376;2023-04-02T08:05:09;101934.69;;;5.04;63.91
65557;BME280;52200;53.490;14.376;2023-04-02T08:07:35;101932.72;;;5.39;61.95
65557;BME280;52200;53.490;14.376;2023-04-02T08:10:02;101932.31;;;5.70;62.01
65557;BME280;52200;53.490;14.376;2023-04-02T08:12:28;101943.94;;;5.58;62.18
65557;BME280;52200;53.490;14.376;2023-04-02T08:14:53;101933.53;;;5.38;61.10
65557;BME280;52200;53.490;14.376;2023-04-02T08:17:19;101954.50;;;5.34;61.31
65557;BME280;52200;53.490;14.376;2023-04-02T08:19:44;101944.75;;;5.59;61.93
65557;BME280;52200;53.490;14.376;2023-04-02T08:22:10;101954.59;;;5.40;63.00
65557;BME280;52200;53.490;14.376;2023-04-02T08:24:35;101951.91;;;5.29;62.31
65557;BME280;52200;53.490;14.376;2023-04-02T08:27:01;101961.41;;;5.47;63.20
65557;BME280;52200;53.490;14.376;2023-04-02T08:29:26;101954.13;;;5.09;63.42
65557;BME280;52200;53.490;14.376;2023-04-02T08:31:59;101963.69;;;5.30;64.11
65557;BME280;52200;53.490;14.376;2023-04-02T08:34:26;101959.88;;;5.59;63.77
65557;BME280;52200;53.490;14.376;2023-04-02T08:36:55;101968.81;;;5.98;63.24
65557;BME280;52200;53.490;14.376;2023-04-02T08:39:21;101962.56;;;6.37;62.21
65557;BME280;52200;53.490;14.376;2023-04-02T08:47:55;101976.84;;;6.35;61.14
65557;BME280;52200;53.490;14.376;2023-04-02T08:50:36;101970.56;;;6.02;60.96
65557;BME280;52200;53.490;14.376;2023-04-02T08:53:05;101963.16;;;6.16;60.98
65557;BME280;52200;53.490;14.376;2023-04-02T08:55:38;101969.34;;;6.41;59.31
65557;BME280;52200;53.490;14.376;2023-04-02T08:58:28;101976.41;;;6.73;60.73
65557;BME280;52200;53.490;14.376;2023-04-02T09:00:57;101977.66;;;7.20;59.19
65557;BME280;52200;53.490;14.376;2023-04-02T09:03:34;101979.00;;;6.84;57.83
65557;BME280;52200;53.490;14.376;2023-04-02T09:06:01;101984.47;;;7.34;58.92
65557;BME280;52200;53.490;14.376;2023-04-02T09:08:29;101978.75;;;7.55;57.62
65557;BME280;52200;53.490;14.376;2023-04-02T09:11:22;101997.94;;;7.28;58.22
65557;BME280;52200;53.490;14.376;2023-04-02T09:13:56;101987.69;;;7.09;57.50
65557;BME280;52200;53.490;14.376;2023-04-02T09:16:43;101993.50;;;7.02;57.70
65557;BME280;52200;53.490;14.376;2023-04-02T09:19:15;102017.13;;;7.07;58.25
65557;BME280;52200;53.490;14.376;2023-04-02T09:24:28;102012.66;;;6.05;58.93
65557;BME280;52200;53.490;14.376;2023-04-02T09:26:53;102022.56;;;5.94;59.75
65557;BME280;52200;53.490;14.376;2023-04-02T09:29:27;102016.75;;;6.67;59.75
65557;BME280;52200;53.490;14.376;2023-04-02T09:32:26;102028.25;;;7.30;58.34
65557;BME280;52200;53.490;14.376;2023-04-02T09:37:31;102036.03;;;7.53;57.72
65557;BME280;52200;53.490;14.376;2023-04-02T09:40:20;102055.31;;;7.38;56.81
65557;BME280;52200;53.490;14.376;2023-04-02T09:42:47;102061.09;;;6.45;55.77
65557;BME280;52200;53.490;14.376;2023-04-02T09:47:41;102051.09;;;5.88;57.70
65557;BME280;52200;53.490;14.376;2023-04-02T09:50:29;102049.97;;;6.29;58.23
65557;BME280;52200;53.490;14.376;2023-04-02T09:52:55;102050.84;;;7.08;57.85
65557;BME280;52200;53.490;14.376;2023-04-02T09:55:22;102050.59;;;7.85;57.05
65557;BME280;52200;53.490;14.376;2023-04-02T09:58:05;102052.66;;;8.66;55.76
65557;BME280;52200;53.490;14.376;2023-04-02T10:00:31;102063.53;;;8.44;55.65
65557;BME280;52200;53.490;14.376;2023-04-02T10:03:03;102056.59;;;8.02;54.80
65557;BME280;52200;53.490;14.376;2023-04-02T10:05:31;102064.91;;;7.83;56.33
65557;BME280;52200;53.490;14.376;2023-04-02T10:08:18;102078.03;;;7.35;57.04
65557;BME280;52200;53.490;14.376;2023-04-02T10:10:50;102078.66;;;7.09;57.68
65557;BME280;52200;53.490;14.376;2023-04-02T10:13:27;102082.78;;;7.03;58.36
65557;BME280;52200;53.490;14.376;2023-04-02T10:18:46;102070.91;;;6.94;59.05
65557;BME280;52200;53.490;14.376;2023-04-02T10:21:17;102078.28;;;6.74;58.70
65557;BME280;52200;53.490;14.376;2023-04-02T10:23:43;102077.69;;;6.98;59.08
65557;BME280;52200;53.490;14.376;2023-04-02T10:29:00;102073.66;;;7.16;56.39
65557;BME280;52200;53.490;14.376;2023-04-02T10:31:54;102096.63;;;7.40;54.98
65557;BME280;52200;53.490;14.376;2023-04-02T10:34:38;102090.13;;;7.72;55.27
65557;BME280;52200;53.490;14.376;2023-04-02T10:40:33;102106.06;;;7.62;56.67
65557;BME280;52200;53.490;14.376;2023-04-02T10:49:02;102119.63;;;6.85;57.63
65557;BME280;52200;53.490;14.376;2023-04-02T10:56:52;102114.56;;;7.70;56.42
65557;BME280;52200;53.490;14.376;2023-04-02T10:59:28;102117.72;;;7.47;58.57
65557;BME280;52200;53.490;14.376;2023-04-02T11:01:57;102130.19;;;7.24;58.95
65557;BME280;52200;53.490;14.376;2023-04-02T11:04:28;102127.03;;;7.50;58.59
65557;BME280;52200;53.490;14.376;2023-04-02T11:06:59;102131.34;;;7.60;58.24
65557;BME280;52200;53.490;14.376;2023-04-02T11:09:31;102141.16;;;7.28;57.80
65557;BME280;52200;53.490;14.376;2023-04-02T11:11:59;102153.75;;;7.23;56.44
65557;BME280;52200;53.490;14.376;2023-04-02T11:14:29;102150.53;;;7.36;57.67
65557;BME280;52200;53.490;14.376;2023-04-02T11:16:56;102155.81;;;7.64;56.23
65557;BME280;52200;53.490;14.376;2023-04-02T11:19:32;102149.78;;;7.47;56.06
65557;BME280;52200;53.490;14.376;2023-04-02T11:22:13;102162.53;;;7.62;55.49
65557;BME280;52200;53.490;14.376;2023-04-02T11:24:45;102179.00;;;7.20;55.74
65557;BME280;52200;53.490;14.376;2023-04-02T11:40:39;102192.22;;;7.00;56.50
65557;BME280;52200;53.490;14.376;2023-04-02T11:42:51;102185.31;;;7.62;56.37
65557;BME280;52200;53.490;14.376;2023-04-02T11:50:33;102202.06;;;7.51;57.08
65557;BME280;52200;53.490;14.376;2023-04-02T11:55:43;102201.13;;;6.72;57.42
65557;BME280;52200;53.490;14.376;2023-04-02T12:09:14;102220.97;;;7.05;57.19
65557;BME280;52200;53.490;14.376;2023-04-02T12:11:43;102220.34;;;6.60;57.84
65557;BME280;52200;53.490;14.376;2023-04-02T12:14:29;102229.84;;;6.77;57.29
65557;BME280;52200;53.490;14.376;2023-04-02T12:16:55;102249.72;;;7.17;57.58
65557;BME280;52200;53.490;14.376;2023-04-02T12:19:22;102240.38;;;7.09;57.13
65557;BME280;52200;53.490;14.376;2023-04-02T12:21:50;102242.69;;;6.94;57.48
65557;BME280;52200;53.490;14.376;2023-04-02T12:24:20;102247.22;;;7.18;56.89
65557;BME280;52200;53.490;14.376;2023-04-02T12:26:47;102238.06;;;7.28;55.83
65557;BME280;52200;53.490;14.376;2023-04-02T12:29:26;102246.81;;;7.55;56.49
65557;BME280;52200;53.490;14.376;2023-04-02T12:31:54;102250.97;;;7.53;57.28
65557;BME280;52200;53.490;14.376;2023-04-02T12:34:22;102256.63;;;7.30;56.58
65557;BME280;52200;53.490;14.376;2023-04-02T12:37:03;102267.44;;;7.17;55.62
65557;BME280;52200;53.490;14.376;2023-04-02T12:39:31;102263.34;;;7.28;56.19
65557;BME280;52200;53.490;14.376;2023-04-02T12:41:57;102263.78;;;7.67;56.79
65557;BME280;52200;53.490;14.376;2023-04-02T12:44:25;102266.78;;;7.33;55.19
65557;BME280;52200;53.490;14.376;2023-04-02T12:46:51;102276.63;;;7.12;56.27
65557;BME280;52200;53.490;14.376;2023-04-02T12:49:37;102277.16;;;6.87;56.49
65557;BME280;52200;53.490;14.376;2023-04-02T12:52:15;102280.94;;;6.59;55.39
65557;BME280;52200;53.490;14.376;2023-04-02T13:00:03;102284.06;;;6.99;56.46
65557;BME280;52200;53.490;14.376;2023-04-02T13:02:49;102285.47;;;6.80;57.03
65557;BME280;52200;53.490;14.376;2023-04-02T13:08:41;102294.28;;;7.08;59.57
65557;BME280;52200;53.490;14.376;2023-04-02T13:11:06;102286.44;;;6.90;58.93
65557;BME280;52200;53.490;14.376;2023-04-02T13:13:37;102287.50;;;6.48;58.52
65557;BME280;52200;53.490;14.376;2023-04-02T13:16:25;102304.28;;;6.45;59.20
65557;BME280;52200;53.490;14.376;2023-04-02T13:21:42;102297.88;;;7.28;59.55
65557;BME280;52200;53.490;14.376;2023-04-02T13:24:28;102299.88;;;6.86;58.07
65557;BME280;52200;53.490;14.376;2023-04-02T13:26:56;102307.00;;;6.58;58.48
65557;BME280;52200;53.490;14.376;2023-04-02T13:29:26;102308.44;;;6.42;57.79
65557;BME280;52200;53.490;14.376;2023-04-02T13:31:54;102306.19;;;6.59;58.31
65557;BME280;52200;53.490;14.376;2023-04-02T13:34:20;102313.56;;;6.45;58.60
65557;BME280;52200;53.490;14.376;2023-04-02T13:36:46;102311.50;;;6.74;58.98
65557;BME280;52200;53.490;14.376;2023-04-02T13:39:11;102318.31;;;6.82;58.46
65557;BME280;52200;53.490;14.376;2023-04-02T13:41:46;102315.41;;;6.57;59.27
65557;BME280;52200;53.490;14.376;2023-04-02T13:44:32;102316.34;;;6.62;59.05
65557;BME280;52200;53.490;14.376;2023-04-02T13:46:59;102326.03;;;6.37;59.29
65557;BME280;52200;53.490;14.376;2023-04-02T13:49:26;102327.41;;;6.72;60.24
65557;BME280;52200;53.490;14.376;2023-04-02T13:51:54;102329.22;;;6.79;61.10
65557;BME280;52200;53.490;14.376;2023-04-02T13:54:38;102321.06;;;6.43;60.41
65557;BME280;52200;53.490;14.376;2023-04-02T13:57:05;102325.88;;;6.28;59.82
65557;BME280;52200;53.490;14.376;2023-04-02T13:59:31;102331.06;;;6.36;59.64
65557;BME280;52200;53.490;14.376;2023-04-02T14:02:02;102334.44;;;6.36;58.95
65557;BME280;52200;53.490;14.376;2023-04-02T14:04:32;102341.94;;;6.32;59.99
65557;BME280;52200;53.490;14.376;2023-04-02T14:10:15;102351.56;;;6.56;59.86
65557;BME280;52200;53.490;14.376;2023-04-02T14:13:02;102345.78;;;6.11;59.45
65557;BME280;52200;53.490;14.376;2023-04-02T14:15:44;102345.97;;;6.22;60.53
65557;BME280;52200;53.490;14.376;2023-04-02T14:18:22;102343.03;;;6.48;60.91
65557;BME280;52200;53.490;14.376;2023-04-02T14:21:16;102340.53;;;6.49;58.96
65557;BME280;52200;53.490;14.376;2023-04-02T14:23:51;102339.22;;;6.21;59.17
65557;BME280;52200;53.490;14.376;2023-04-02T14:26:31;102357.69;;;6.20;59.02
65557;BME280;52200;53.490;14.376;2023-04-02T14:29:15;102351.81;;;6.19;57.99
65557;BME280;52200;53.490;14.376;2023-04-02T14:31:58;102355.66;;;6.48;59.07
65557;BME280;52200;53.490;14.376;2023-04-02T14:37:19;102359.59;;;5.87;60.62
65557;BME280;52200;53.490;14.376;2023-04-02T14:48:29;102374.81;;;5.90;59.79
65557;BME280;52200;53.490;14.376;2023-04-02T14:51:00;102374.88;;;5.95;59.11
65557;BME280;52200;53.490;14.376;2023-04-02T14:53:35;102379.22;;;5.99;59.78
65557;BME280;52200;53.490;14.376;2023-04-02T14:56:06;102379.06;;;5.94;60.34
65557;BME280;52200;53.490;14.376;2023-04-02T14:58:38;102384.25;;;5.99;60.46
65557;BME280;52200;53.490;14.376;2023-04-02T15:01:21;102385.63;;;5.86;58.77
65557;BME280;52200;53.490;14.376;2023-04-02T15:04:17;102385.94;;;6.00;60.73
65557;BME280;52200;53.490;14.376;2023-04-02T15:06:49;102388.19;;;5.88;60.54
65557;BME280;52200;53.490;14.376;2023-04-02T15:09:26;102402.31;;;5.79;58.58
65557;BME280;52200;53.490;14.376;2023-04-02T15:12:07;102389.63;;;5.76;58.79
65557;BME280;52200;53.490;14.376;2023-04-02T15:14:45;102397.81;;;5.64;58.63
65557;BME280;52200;53.490;14.376;2023-04-02T15:17:12;102409.00;;;5.77;59.75
65557;BME280;52200;53.490;14.376;2023-04-02T15:19:38;102412.59;;;5.49;57.40
65557;BME280;52200;53.490;14.376;2023-04-02T15:30:33;102432.19;;;5.23;59.74
65557;BME280;52200;53.490;14.376;2023-04-02T15:33:23;102429.41;;;5.48;61.72
65557;BME280;52200;53.490;14.376;2023-04-02T15:38:55;102428.47;;;5.43;61.06
65557;BME280;52200;53.490;14.376;2023-04-02T15:41:30;102436.84;;;5.44;60.62
65557;BME280;52200;53.490;14.376;2023-04-02T15:44:12;102446.25;;;5.51;60.43
65557;BME280;52200;53.490;14.376;2023-04-02T15:52:30;102454.47;;;5.07;60.11
65557;BME280;52200;53.490;14.376;2023-04-02T15:58:39;102464.03;;;4.86;60.71
65557;BME280;52200;53.490;14.376;2023-04-02T16:00:50;102470.13;;;4.94;60.92
65557;BME280;52200;53.490;14.376;2023-04-02T16:10:53;102490.66;;;4.77;61.57
65557;BME280;52200;53.490;14.376;2023-04-02T16:13:33;102497.34;;;4.75;60.43
65557;BME280;52200;53.490;14.376;2023-04-02T16:16:03;102502.31;;;4.74;62.06
65557;BME280;52200;53.490;14.376;2023-04-02T16:21:01;102489.06;;;4.79;61.95
65557;BME280;52200;53.490;14.376;2023-04-02T16:23:33;102509.38;;;4.86;62.36